Terminal Aerodrome Forecast
Issued by NWS Upton, NY

Home | Current Version | Previous Version | Text Only | Print | Product List | Glossary On
Versions: 1 2 3 4 5 6 7 8 9 10 11 12 13 14 15 16 17 18 19 20 21 22 23 24 25 26 27 28 29 30 31 32 33
000
FTUS41 KOKX 280527
TAFEWR
TAF
KEWR 280527Z 2806/2912 21006KT P6SM SCT040 BKN050
     FM280800 22006KT P6SM SCT013
     FM281000 23006KT P6SM BKN013
     FM281500 22010KT P6SM SCT020 BKN200
     FM281800 23011G17KT P6SM BKN040
     FM282200 26010KT P6SM FEW100
     FM290400 34010KT P6SM BKN250=

USA.gov is the U.S. government's official web portal to all federal, state and local government web resources and services.